Aviation Digital Data Service (ADDS)

Output produced by METARs form (2315 UTC 23 October 2019)
found at http://www.aviationweather.gov/metar/data/
 
METAR text: RJFS 232300Z 01009KT 9999 FEW010 SCT030 BKN040 18/17 Q1013
Conditions at: RJFS (SAGA AIRPORT , JP) observed 2300 UTC 23 October 2019
Temperature: 18.0°C (64°F)
Dewpoint: 17.0°C (63°F) [RH = 94%]
Pressure (altimeter): 29.91 inches Hg (1013.0 mb)
Winds: from the N (10 degrees) at 10 MPH (9 knots; 4.6 m/s)
Visibility: 6 or more miles (10+ km)
Ceiling: 4000 feet AGL
Clouds: few clouds at 1000 feet AGL
scattered clouds at 3000 feet AGL
broken clouds at 4000 feet AGL
Weather: no significant weather observed at this time

METAR text: RJFS 232200Z 01010KT 6000 -SHRA FEW010 SCT030 BKN040 17/17 Q1012
Conditions at: RJFS (SAGA AIRPORT , JP) observed 2200 UTC 23 October 2019
Temperature: 17.0°C (63°F)
Dewpoint: 17.0°C (63°F) [RH = 100%]
Pressure (altimeter): 29.88 inches Hg (1012.0 mb)
Winds: from the N (10 degrees) at 12 MPH (10 knots; 5.1 m/s)
Visibility: 4 miles ( 6 km)
Ceiling: 4000 feet AGL
Clouds: few clouds at 1000 feet AGL
scattered clouds at 3000 feet AGL
broken clouds at 4000 feet AGL
Weather: -SHRA  (light rain showers)

METAR text: RJFS 232100Z 02011KT 6000 -SHRA FEW010 SCT030 BKN045 17/16 Q1012
Conditions at: RJFS (SAGA AIRPORT , JP) observed 2100 UTC 23 October 2019
Temperature: 17.0°C (63°F)
Dewpoint: 16.0°C (61°F) [RH = 94%]
Pressure (altimeter): 29.88 inches Hg (1012.0 mb)
Winds: from the NNE (20 degrees) at 13 MPH (11 knots; 5.7 m/s)
Visibility: 4 miles ( 6 km)
Ceiling: 4500 feet AGL
Clouds: few clouds at 1000 feet AGL
scattered clouds at 3000 feet AGL
broken clouds at 4500 feet AGL
Weather: -SHRA  (light rain showers)

METAR text: RJFS 231400Z 07006KT 7000 -RA FEW030 SCT100 BKN120 18/18 Q1015
Conditions at: RJFS (SAGA AIRPORT , JP) observed 1400 UTC 23 October 2019
Temperature: 18.0°C (64°F)
Dewpoint: 18.0°C (64°F) [RH = 100%]
Pressure (altimeter): 29.97 inches Hg (1015.0 mb)
Winds: from the ENE (70 degrees) at 7 MPH (6 knots; 3.1 m/s)
Visibility: 4 miles ( 7 km)
Ceiling: 12000 feet AGL
Clouds: few clouds at 3000 feet AGL
scattered clouds at 10000 feet AGL
broken clouds at 12000 feet AGL
Weather: -RA  (light rain)

METAR text: RJFS 231300Z 01005KT 6000 -SHRA FEW025 SCT035 BKN080 19/18 Q1016
Conditions at: RJFS (SAGA AIRPORT , JP) observed 1300 UTC 23 October 2019
Temperature: 19.0°C (66°F)
Dewpoint: 18.0°C (64°F) [RH = 94%]
Pressure (altimeter): 30.00 inches Hg (1016.0 mb)
Winds: from the N (10 degrees) at 6 MPH (5 knots; 2.6 m/s)
Visibility: 4 miles ( 6 km)
Ceiling: 8000 feet AGL
Clouds: few clouds at 2500 feet AGL
scattered clouds at 3500 feet AGL
broken clouds at 8000 feet AGL
Weather: -SHRA  (light rain showers)

METAR text: RJFS 231200Z 02005KT 6000 -SHRA FEW020 SCT025 BKN110 19/18 Q1015
Conditions at: RJFS (SAGA AIRPORT , JP) observed 1200 UTC 23 October 2019
Temperature: 19.0°C (66°F)
Dewpoint: 18.0°C (64°F) [RH = 94%]
Pressure (altimeter): 29.97 inches Hg (1015.0 mb)
Winds: from the NNE (20 degrees) at 6 MPH (5 knots; 2.6 m/s)
Visibility: 4 miles ( 6 km)
Ceiling: 11000 feet AGL
Clouds: few clouds at 2000 feet AGL
scattered clouds at 2500 feet AGL
broken clouds at 11000 feet AGL
Weather: -SHRA  (light rain showers)

METAR text: RJFS 231100Z 35006KT 6000 -SHRA FEW003 BKN025 18/18 Q1015
Conditions at: RJFS (SAGA AIRPORT , JP) observed 1100 UTC 23 October 2019
Temperature: 18.0°C (64°F)
Dewpoint: 18.0°C (64°F) [RH = 100%]
Pressure (altimeter): 29.97 inches Hg (1015.0 mb)
Winds: from the N (350 degrees) at 7 MPH (6 knots; 3.1 m/s)
Visibility: 4 miles ( 6 km)
Ceiling: 2500 feet AGL
Clouds: few clouds at 300 feet AGL
broken clouds at 2500 feet AGL
Weather: -SHRA  (light rain showers)

METAR text: RJFS 231031Z 35004KT 320V030 4000 SHRA BR FEW003 BKN025 19/18 Q1015 RMK 1ST003 6CU025 A2999
Conditions at: RJFS (SAGA AIRPORT , JP) observed 1031 UTC 23 October 2019
Temperature: 19.0°C (66°F)
Dewpoint: 18.0°C (64°F) [RH = 94%]
Pressure (altimeter): 29.97 inches Hg (1015.0 mb)
Winds: from the N (350 degrees) at 5 MPH (4 knots; 2.1 m/s)
Visibility: 2.49 miles (4.01 km)
Ceiling: 2500 feet AGL
Clouds: few clouds at 300 feet AGL
broken clouds at 2500 feet AGL
Weather: SHRA BR  (rain showers, mist)

METAR text: RJFS 231000Z 32004KT 280V030 6000 -SHRA FEW020 SCT030 BKN035 19/18 Q1015
Conditions at: RJFS (SAGA AIRPORT , JP) observed 1000 UTC 23 October 2019
Temperature: 19.0°C (66°F)
Dewpoint: 18.0°C (64°F) [RH = 94%]
Pressure (altimeter): 29.97 inches Hg (1015.0 mb)
Winds: from the NW (320 degrees) at 5 MPH (4 knots; 2.1 m/s)
Visibility: 4 miles ( 6 km)
Ceiling: 3500 feet AGL
Clouds: few clouds at 2000 feet AGL
scattered clouds at 3000 feet AGL
broken clouds at 3500 feet AGL
Weather: -SHRA  (light rain showers)

METAR text: RJFS 230900Z 26007KT 7000 -SHRA FEW025 SCT030 BKN040 20/19 Q1014
Conditions at: RJFS (SAGA AIRPORT , JP) observed 0900 UTC 23 October 2019
Temperature: 20.0°C (68°F)
Dewpoint: 19.0°C (66°F) [RH = 94%]
Pressure (altimeter): 29.94 inches Hg (1014.0 mb)
Winds: from the W (260 degrees) at 8 MPH (7 knots; 3.6 m/s)
Visibility: 4 miles ( 7 km)
Ceiling: 4000 feet AGL
Clouds: few clouds at 2500 feet AGL
scattered clouds at 3000 feet AGL
broken clouds at 4000 feet AGL
Weather: -SHRA  (light rain showers)

METAR text: RJFS 230800Z 29004KT 9999 -RA FEW035 BKN050 BKN070 21/18 Q1013
Conditions at: RJFS (SAGA AIRPORT , JP) observed 0800 UTC 23 October 2019
Temperature: 21.0°C (70°F)
Dewpoint: 18.0°C (64°F) [RH = 83%]
Pressure (altimeter): 29.91 inches Hg (1013.0 mb)
Winds: from the WNW (290 degrees) at 5 MPH (4 knots; 2.1 m/s)
Visibility: 6 or more miles (10+ km)
Ceiling: 5000 feet AGL
Clouds: few clouds at 3500 feet AGL
broken clouds at 5000 feet AGL
broken clouds at 7000 feet AGL
Weather: -RA  (light rain)

METAR text: RJFS 230700Z 04004KT 360V070 9999 FEW040 BKN060 BKN080 23/17 Q1013
Conditions at: RJFS (SAGA AIRPORT , JP) observed 0700 UTC 23 October 2019
Temperature: 23.0°C (73°F)
Dewpoint: 17.0°C (63°F) [RH = 69%]
Pressure (altimeter): 29.91 inches Hg (1013.0 mb)
Winds: from the NE (40 degrees) at 5 MPH (4 knots; 2.1 m/s)
Visibility: 6 or more miles (10+ km)
Ceiling: 6000 feet AGL
Clouds: few clouds at 4000 feet AGL
broken clouds at 6000 feet AGL
broken clouds at 8000 feet AGL
Weather: no significant weather observed at this time

METAR text: RJFS 230600Z 03007KT 9999 FEW040 BKN050 BKN100 23/17 Q1012
Conditions at: RJFS (SAGA AIRPORT , JP) observed 0600 UTC 23 October 2019
Temperature: 23.0°C (73°F)
Dewpoint: 17.0°C (63°F) [RH = 69%]
Pressure (altimeter): 29.88 inches Hg (1012.0 mb)
Winds: from the NNE (30 degrees) at 8 MPH (7 knots; 3.6 m/s)
Visibility: 6 or more miles (10+ km)
Ceiling: 5000 feet AGL
Clouds: few clouds at 4000 feet AGL
broken clouds at 5000 feet AGL
broken clouds at 10000 feet AGL
Weather: no significant weather observed at this time

METAR text: RJFS 230500Z 04006KT 9999 FEW040 BKN050 24/17 Q1012
Conditions at: RJFS (SAGA AIRPORT , JP) observed 0500 UTC 23 October 2019
Temperature: 24.0°C (75°F)
Dewpoint: 17.0°C (63°F) [RH = 65%]
Pressure (altimeter): 29.88 inches Hg (1012.0 mb)
Winds: from the NE (40 degrees) at 7 MPH (6 knots; 3.1 m/s)
Visibility: 6 or more miles (10+ km)
Ceiling: 5000 feet AGL
Clouds: few clouds at 4000 feet AGL
broken clouds at 5000 feet AGL
Weather: no significant weather observed at this time

METAR text: RJFS 230400Z 04008KT 9999 FEW030 BKN040 24/16 Q1013
Conditions at: RJFS (SAGA AIRPORT , JP) observed 0400 UTC 23 October 2019
Temperature: 24.0°C (75°F)
Dewpoint: 16.0°C (61°F) [RH = 61%]
Pressure (altimeter): 29.91 inches Hg (1013.0 mb)
Winds: from the NE (40 degrees) at 9 MPH (8 knots; 4.1 m/s)
Visibility: 6 or more miles (10+ km)
Ceiling: 4000 feet AGL
Clouds: few clouds at 3000 feet AGL
broken clouds at 4000 feet AGL
Weather: no significant weather observed at this time

METAR text: RJFS 230300Z 05007KT 9999 FEW030 SCT040 BKN/// 23/16 Q1013
Conditions at: RJFS (SAGA AIRPORT , JP) observed 0300 UTC 23 October 2019
Temperature: 23.0°C (73°F)
Dewpoint: 16.0°C (61°F) [RH = 65%]
Pressure (altimeter): 29.91 inches Hg (1013.0 mb)
Winds: from the NE (50 degrees) at 8 MPH (7 knots; 3.6 m/s)
Visibility: 6 or more miles (10+ km)
Ceiling: at least 12,000 feet AGL
Clouds: few clouds at 3000 feet AGL
scattered clouds at 4000 feet AGL
Weather: no significant weather observed at this time

METAR text: RJFS 230200Z 05007KT 9999 FEW050 BKN/// 22/16 Q1014
Conditions at: RJFS (SAGA AIRPORT , JP) observed 0200 UTC 23 October 2019
Temperature: 22.0°C (72°F)
Dewpoint: 16.0°C (61°F) [RH = 69%]
Pressure (altimeter): 29.94 inches Hg (1014.0 mb)
Winds: from the NE (50 degrees) at 8 MPH (7 knots; 3.6 m/s)
Visibility: 6 or more miles (10+ km)
Ceiling: at least 12,000 feet AGL
Clouds: few clouds at 5000 feet AGL
Weather: no significant weather observed at this time

METAR text: RJFS 230100Z 03008KT 360V070 9999 FEW040 SCT070 BKN/// 22/16 Q1014
Conditions at: RJFS (SAGA AIRPORT , JP) observed 0100 UTC 23 October 2019
Temperature: 22.0°C (72°F)
Dewpoint: 16.0°C (61°F) [RH = 69%]
Pressure (altimeter): 29.94 inches Hg (1014.0 mb)
Winds: from the NNE (30 degrees) at 9 MPH (8 knots; 4.1 m/s)
Visibility: 6 or more miles (10+ km)
Ceiling: at least 12,000 feet AGL
Clouds: few clouds at 4000 feet AGL
scattered clouds at 7000 feet AGL
Weather: no significant weather observed at this time

METAR text: RJFS 230000Z 03009KT 9999 FEW040 BKN/// 21/17 Q1015
Conditions at: RJFS (SAGA AIRPORT , JP) observed 0000 UTC 23 October 2019
Temperature: 21.0°C (70°F)
Dewpoint: 17.0°C (63°F) [RH = 78%]
Pressure (altimeter): 29.97 inches Hg (1015.0 mb)
Winds: from the NNE (30 degrees) at 10 MPH (9 knots; 4.6 m/s)
Visibility: 6 or more miles (10+ km)
Ceiling: at least 12,000 feet AGL
Clouds: few clouds at 4000 feet AGL
Weather: no significant weather observed at this time

METAR text: RJFS 222300Z 35005KT 320V020 9999 SCT050 BKN/// 19/16 Q1014
Conditions at: RJFS (SAGA AIRPORT , JP) observed 2300 UTC 22 October 2019
Temperature: 19.0°C (66°F)
Dewpoint: 16.0°C (61°F) [RH = 83%]
Pressure (altimeter): 29.94 inches Hg (1014.0 mb)
Winds: from the N (350 degrees) at 6 MPH (5 knots; 2.6 m/s)
Visibility: 6 or more miles (10+ km)
Ceiling: at least 12,000 feet AGL
Clouds: scattered clouds at 5000 feet AGL
Weather: no significant weather observed at this time

METAR text: RJFS 222200Z 34004KT 9999 FEW040 BKN/// 17/16 Q1014
Conditions at: RJFS (SAGA AIRPORT , JP) observed 2200 UTC 22 October 2019
Temperature: 17.0°C (63°F)
Dewpoint: 16.0°C (61°F) [RH = 94%]
Pressure (altimeter): 29.94 inches Hg (1014.0 mb)
Winds: from the NNW (340 degrees) at 5 MPH (4 knots; 2.1 m/s)
Visibility: 6 or more miles (10+ km)
Ceiling: at least 12,000 feet AGL
Clouds: few clouds at 4000 feet AGL
Weather: no significant weather observed at this time

METAR text: RJFS 222100Z 36006KT 9999 FEW030 SCT060 BKN/// 17/15 Q1014
Conditions at: RJFS (SAGA AIRPORT , JP) observed 2100 UTC 22 October 2019
Temperature: 17.0°C (63°F)
Dewpoint: 15.0°C (59°F) [RH = 88%]
Pressure (altimeter): 29.94 inches Hg (1014.0 mb)
Winds: from the N (360 degrees) at 7 MPH (6 knots; 3.1 m/s)
Visibility: 6 or more miles (10+ km)
Ceiling: at least 12,000 feet AGL
Clouds: few clouds at 3000 feet AGL
scattered clouds at 6000 feet AGL
Weather: no significant weather observed at this time

METAR text: RJFS 221400Z 36005KT CAVOK 17/15 Q1014
Conditions at: RJFS (SAGA AIRPORT , JP) observed 1400 UTC 22 October 2019
Temperature: 17.0°C (63°F)
Dewpoint: 15.0°C (59°F) [RH = 88%]
Pressure (altimeter): 29.94 inches Hg (1014.0 mb)
Winds: from the N (360 degrees) at 6 MPH (5 knots; 2.6 m/s)
Visibility: 6 or more miles (10+ km)
Ceiling: ceiling and visibility are OK
Clouds: unknown
Weather: no significant weather observed at this time

METAR text: RJFS 221300Z 35004KT 9999 FEW030 18/16 Q1014
Conditions at: RJFS (SAGA AIRPORT , JP) observed 1300 UTC 22 October 2019
Temperature: 18.0°C (64°F)
Dewpoint: 16.0°C (61°F) [RH = 88%]
Pressure (altimeter): 29.94 inches Hg (1014.0 mb)
Winds: from the N (350 degrees) at 5 MPH (4 knots; 2.1 m/s)
Visibility: 6 or more miles (10+ km)
Ceiling: at least 12,000 feet AGL
Clouds: few clouds at 3000 feet AGL
Weather: no significant weather observed at this time

METAR text: RJFS 221200Z 33004KT 9999 FEW030 18/16 Q1014
Conditions at: RJFS (SAGA AIRPORT , JP) observed 1200 UTC 22 October 2019
Temperature: 18.0°C (64°F)
Dewpoint: 16.0°C (61°F) [RH = 88%]
Pressure (altimeter): 29.94 inches Hg (1014.0 mb)
Winds: from the NNW (330 degrees) at 5 MPH (4 knots; 2.1 m/s)
Visibility: 6 or more miles (10+ km)
Ceiling: at least 12,000 feet AGL
Clouds: few clouds at 3000 feet AGL
Weather: no significant weather observed at this time

Forecast for: RJFS (SAGA AIRPORT , JP)
Text: TAF RJFS 231709Z 2318/2500 02012KT 9999 FEW020 BKN030
Forecast period: 1800 UTC 23 October 2019 to 0900 UTC 24 October 2019
Forecast type: FROM: standard forecast or significant change
Winds: from the NNE (20 degrees) at 14 MPH (12 knots; 6.2 m/s)
Visibility: 6 or more miles 10+ km)
Ceiling: 3000 feet AGL
Clouds: few clouds at 2000 feet AGL
broken clouds at 3000 feet AGL
Weather: no significant weather forecast for this period
Text: TEMPO 2403/2409 3000 SHRA BR
Forecast period: 0300 to 0900 UTC 24 October 2019
Forecast type: TEMPORARY: The following changes expected for less than half the time period
Visibility: 1.86 miles (2.99 km)
Ceiling: unknown
Clouds: missing
Weather: SHRA BR  (rain showers, mist)
Text: BECMG 2409/2412 30010KT
Forecast period: 0900 UTC 24 October 2019 to 0000 UTC 25 October 2019
Forecast type: BECOMING: Conditions expected to become as follows by 1200 UTC 24 October 2019
Winds: from the WNW (300 degrees) at 12 MPH (10 knots; 5.1 m/s)
Visibility: 6 or more miles 10+ km)
Ceiling: 3000 feet AGL
Clouds: few clouds at 2000 feet AGL
broken clouds at 3000 feet AGL
Weather: no significant weather forecast for this period